sensor_id;sensor_type;location;lat;lon;timestamp;P1;durP1;ratioP1;P2;durP2;ratioP2
36405;SDS011;22438;42.670;23.288;2023-02-13T00:00:15;85.88;;;38.08;;
36405;SDS011;22438;42.670;23.288;2023-02-13T00:03:38;81.82;;;37.10;;
36405;SDS011;22438;42.670;23.288;2023-02-13T00:06:59;79.72;;;37.75;;
36405;SDS011;22438;42.670;23.288;2023-02-13T00:10:19;82.03;;;37.35;;
36405;SDS011;22438;42.670;23.288;2023-02-13T00:13:40;78.35;;;36.47;;
36405;SDS011;22438;42.670;23.288;2023-02-13T00:17:01;85.13;;;37.28;;
36405;SDS011;22438;42.670;23.288;2023-02-13T00:20:22;81.20;;;36.10;;
36405;SDS011;22438;42.670;23.288;2023-02-13T00:23:43;76.32;;;35.20;;
36405;SDS011;22438;42.670;23.288;2023-02-13T00:27:03;76.13;;;35.05;;
36405;SDS011;22438;42.670;23.288;2023-02-13T00:30:24;77.10;;;35.50;;
36405;SDS011;22438;42.670;23.288;2023-02-13T00:33:45;79.65;;;35.22;;
36405;SDS011;22438;42.670;23.288;2023-02-13T00:37:06;75.97;;;35.25;;
36405;SDS011;22438;42.670;23.288;2023-02-13T00:40:27;77.72;;;36.55;;
36405;SDS011;22438;42.670;23.288;2023-02-13T00:43:47;72.40;;;35.58;;
36405;SDS011;22438;42.670;23.288;2023-02-13T00:47:08;78.88;;;34.85;;
36405;SDS011;22438;42.670;23.288;2023-02-13T00:50:29;73.80;;;35.35;;
36405;SDS011;22438;42.670;23.288;2023-02-13T00:53:50;73.03;;;35.30;;
36405;SDS011;22438;42.670;23.288;2023-02-13T00:57:11;76.38;;;36.55;;
36405;SDS011;22438;42.670;23.288;2023-02-13T01:00:31;75.32;;;35.28;;
36405;SDS011;22438;42.670;23.288;2023-02-13T01:03:52;76.18;;;33.33;;
36405;SDS011;22438;42.670;23.288;2023-02-13T01:07:13;80.40;;;34.75;;
36405;SDS011;22438;42.670;23.288;2023-02-13T01:10:34;72.45;;;35.72;;
36405;SDS011;22438;42.670;23.288;2023-02-13T01:13:56;69.03;;;30.23;;
36405;SDS011;22438;42.670;23.288;2023-02-13T01:17:17;80.55;;;35.92;;
36405;SDS011;22438;42.670;23.288;2023-02-13T01:20:38;79.78;;;35.08;;
36405;SDS011;22438;42.670;23.288;2023-02-13T01:24:01;78.30;;;35.58;;
36405;SDS011;22438;42.670;23.288;2023-02-13T01:27:23;78.43;;;36.30;;
36405;SDS011;22438;42.670;23.288;2023-02-13T01:30:44;81.93;;;36.05;;
36405;SDS011;22438;42.670;23.288;2023-02-13T01:34:05;75.68;;;35.22;;
36405;SDS011;22438;42.670;23.288;2023-02-13T01:37:26;74.63;;;34.70;;
36405;SDS011;22438;42.670;23.288;2023-02-13T01:40:47;83.32;;;36.85;;
36405;SDS011;22438;42.670;23.288;2023-02-13T01:48:15;73.88;;;33.22;;
36405;SDS011;22438;42.670;23.288;2023-02-13T01:51:38;79.22;;;34.85;;
36405;SDS011;22438;42.670;23.288;2023-02-13T01:54:59;83.97;;;35.67;;
36405;SDS011;22438;42.670;23.288;2023-02-13T01:58:21;76.13;;;34.85;;
36405;SDS011;22438;42.670;23.288;2023-02-13T02:01:44;79.30;;;35.00;;
36405;SDS011;22438;42.670;23.288;2023-02-13T02:05:05;77.78;;;37.30;;
36405;SDS011;22438;42.670;23.288;2023-02-13T02:08:28;81.28;;;37.05;;
36405;SDS011;22438;42.670;23.288;2023-02-13T02:12:36;84.65;;;36.13;;
36405;SDS011;22438;42.670;23.288;2023-02-13T02:15:48;78.32;;;34.70;;
36405;SDS011;22438;42.670;23.288;2023-02-13T02:19:12;79.80;;;37.05;;
36405;SDS011;22438;42.670;23.288;2023-02-13T02:40:36;82.97;;;37.97;;
36405;SDS011;22438;42.670;23.288;2023-02-13T02:48:09;75.10;;;35.83;;
36405;SDS011;22438;42.670;23.288;2023-02-13T02:59:12;79.50;;;35.67;;
36405;SDS011;22438;42.670;23.288;2023-02-13T03:02:54;77.45;;;35.30;;
36405;SDS011;22438;42.670;23.288;2023-02-13T03:10:00;73.80;;;35.20;;
36405;SDS011;22438;42.670;23.288;2023-02-13T03:13:43;75.45;;;36.45;;
36405;SDS011;22438;42.670;23.288;2023-02-13T03:17:05;78.78;;;35.60;;
36405;SDS011;22438;42.670;23.288;2023-02-13T03:20:53;77.78;;;37.63;;
36405;SDS011;22438;42.670;23.288;2023-02-13T03:28:51;71.57;;;34.03;;
36405;SDS011;22438;42.670;23.288;2023-02-13T03:33:11;76.85;;;33.33;;
36405;SDS011;22438;42.670;23.288;2023-02-13T03:36:54;72.35;;;33.22;;
36405;SDS011;22438;42.670;23.288;2023-02-13T03:40:48;73.47;;;34.55;;
36405;SDS011;22438;42.670;23.288;2023-02-13T03:48:04;73.15;;;32.60;;
36405;SDS011;22438;42.670;23.288;2023-02-13T03:51:31;78.90;;;33.95;;
36405;SDS011;22438;42.670;23.288;2023-02-13T03:54:59;77.03;;;34.33;;
36405;SDS011;22438;42.670;23.288;2023-02-13T03:58:44;75.97;;;34.25;;
36405;SDS011;22438;42.670;23.288;2023-02-13T04:02:27;72.68;;;33.47;;
36405;SDS011;22438;42.670;23.288;2023-02-13T04:05:51;77.57;;;34.08;;
36405;SDS011;22438;42.670;23.288;2023-02-13T04:09:15;68.85;;;32.35;;
36405;SDS011;22438;42.670;23.288;2023-02-13T04:12:47;70.30;;;33.45;;
36405;SDS011;22438;42.670;23.288;2023-02-13T04:16:16;75.30;;;33.72;;
36405;SDS011;22438;42.670;23.288;2023-02-13T04:19:41;66.60;;;32.70;;
36405;SDS011;22438;42.670;23.288;2023-02-13T04:23:08;77.88;;;34.13;;
36405;SDS011;22438;42.670;23.288;2023-02-13T04:26:32;71.18;;;32.80;;
36405;SDS011;22438;42.670;23.288;2023-02-13T04:29:55;72.18;;;32.63;;
36405;SDS011;22438;42.670;23.288;2023-02-13T04:33:16;73.43;;;31.70;;
36405;SDS011;22438;42.670;23.288;2023-02-13T04:36:36;72.53;;;32.47;;
36405;SDS011;22438;42.670;23.288;2023-02-13T04:39:57;68.85;;;32.67;;
36405;SDS011;22438;42.670;23.288;2023-02-13T04:43:18;78.10;;;32.05;;
36405;SDS011;22438;42.670;23.288;2023-02-13T04:46:38;65.40;;;31.70;;
36405;SDS011;22438;42.670;23.288;2023-02-13T04:49:59;77.00;;;34.25;;
36405;SDS011;22438;42.670;23.288;2023-02-13T04:53:20;71.25;;;31.77;;
36405;SDS011;22438;42.670;23.288;2023-02-13T04:56:41;74.28;;;33.53;;
36405;SDS011;22438;42.670;23.288;2023-02-13T05:00:02;70.65;;;32.88;;
36405;SDS011;22438;42.670;23.288;2023-02-13T05:03:24;69.90;;;32.75;;
36405;SDS011;22438;42.670;23.288;2023-02-13T05:06:45;74.25;;;32.75;;
36405;SDS011;22438;42.670;23.288;2023-02-13T05:10:05;66.20;;;32.35;;
36405;SDS011;22438;42.670;23.288;2023-02-13T05:13:26;65.68;;;31.27;;
36405;SDS011;22438;42.670;23.288;2023-02-13T05:16:47;68.55;;;31.58;;
36405;SDS011;22438;42.670;23.288;2023-02-13T05:20:09;73.00;;;31.23;;
36405;SDS011;22438;42.670;23.288;2023-02-13T05:23:30;70.65;;;32.22;;
36405;SDS011;22438;42.670;23.288;2023-02-13T05:26:51;69.28;;;29.83;;
36405;SDS011;22438;42.670;23.288;2023-02-13T05:30:12;65.25;;;29.40;;
36405;SDS011;22438;42.670;23.288;2023-02-13T05:33:33;74.75;;;34.40;;
36405;SDS011;22438;42.670;23.288;2023-02-13T05:36:54;71.72;;;34.15;;
36405;SDS011;22438;42.670;23.288;2023-02-13T05:40:15;71.75;;;34.22;;
36405;SDS011;22438;42.670;23.288;2023-02-13T05:43:36;71.85;;;33.45;;
36405;SDS011;22438;42.670;23.288;2023-02-13T05:46:56;69.00;;;32.15;;
36405;SDS011;22438;42.670;23.288;2023-02-13T05:50:17;73.05;;;32.05;;
36405;SDS011;22438;42.670;23.288;2023-02-13T05:53:38;70.50;;;34.13;;
36405;SDS011;22438;42.670;23.288;2023-02-13T05:56:58;76.68;;;35.47;;
36405;SDS011;22438;42.670;23.288;2023-02-13T06:00:19;75.45;;;35.28;;
36405;SDS011;22438;42.670;23.288;2023-02-13T06:03:40;78.40;;;34.58;;
36405;SDS011;22438;42.670;23.288;2023-02-13T06:07:01;85.78;;;38.03;;
36405;SDS011;22438;42.670;23.288;2023-02-13T06:10:22;89.55;;;41.75;;
36405;SDS011;22438;42.670;23.288;2023-02-13T06:13:43;87.22;;;41.45;;
36405;SDS011;22438;42.670;23.288;2023-02-13T06:17:03;86.72;;;40.97;;
36405;SDS011;22438;42.670;23.288;2023-02-13T06:20:24;86.65;;;38.63;;
36405;SDS011;22438;42.670;23.288;2023-02-13T06:23:45;77.60;;;38.15;;
36405;SDS011;22438;42.670;23.288;2023-02-13T06:27:05;78.97;;;37.88;;
36405;SDS011;22438;42.670;23.288;2023-02-13T06:30:26;79.35;;;39.33;;
36405;SDS011;22438;42.670;23.288;2023-02-13T06:33:47;80.22;;;39.55;;
36405;SDS011;22438;42.670;23.288;2023-02-13T06:37:07;83.32;;;40.38;;
36405;SDS011;22438;42.670;23.288;2023-02-13T06:40:28;84.68;;;39.50;;
36405;SDS011;22438;42.670;23.288;2023-02-13T06:43:49;85.20;;;42.15;;
36405;SDS011;22438;42.670;23.288;2023-02-13T06:47:10;90.60;;;41.95;;
36405;SDS011;22438;42.670;23.288;2023-02-13T06:50:31;97.53;;;46.92;;
36405;SDS011;22438;42.670;23.288;2023-02-13T06:53:52;97.30;;;47.30;;
36405;SDS011;22438;42.670;23.288;2023-02-13T06:57:12;95.22;;;48.58;;
36405;SDS011;22438;42.670;23.288;2023-02-13T07:00:33;88.10;;;43.03;;
36405;SDS011;22438;42.670;23.288;2023-02-13T07:03:54;83.65;;;41.90;;
36405;SDS011;22438;42.670;23.288;2023-02-13T07:07:14;85.55;;;40.10;;
36405;SDS011;22438;42.670;23.288;2023-02-13T07:10:39;84.93;;;40.92;;
36405;SDS011;22438;42.670;23.288;2023-02-13T07:14:00;76.35;;;37.03;;
36405;SDS011;22438;42.670;23.288;2023-02-13T07:17:21;66.55;;;32.90;;
36405;SDS011;22438;42.670;23.288;2023-02-13T07:20:42;66.55;;;29.85;;
36405;SDS011;22438;42.670;23.288;2023-02-13T07:24:03;58.78;;;27.10;;
36405;SDS011;22438;42.670;23.288;2023-02-13T07:27:25;63.40;;;28.73;;
36405;SDS011;22438;42.670;23.288;2023-02-13T07:30:48;64.13;;;29.65;;
36405;SDS011;22438;42.670;23.288;2023-02-13T07:34:09;64.25;;;30.27;;
36405;SDS011;22438;42.670;23.288;2023-02-13T07:37:30;62.13;;;29.60;;
36405;SDS011;22438;42.670;23.288;2023-02-13T07:40:51;60.50;;;28.40;;
36405;SDS011;22438;42.670;23.288;2023-02-13T07:44:11;74.85;;;36.25;;
36405;SDS011;22438;42.670;23.288;2023-02-13T07:47:32;70.32;;;33.10;;
36405;SDS011;22438;42.670;23.288;2023-02-13T07:50:54;64.57;;;31.60;;
36405;SDS011;22438;42.670;23.288;2023-02-13T07:54:18;66.15;;;30.98;;
36405;SDS011;22438;42.670;23.288;2023-02-13T07:57:39;58.92;;;29.40;;
36405;SDS011;22438;42.670;23.288;2023-02-13T08:01:10;57.58;;;29.38;;
36405;SDS011;22438;42.670;23.288;2023-02-13T08:04:32;69.30;;;31.02;;
36405;SDS011;22438;42.670;23.288;2023-02-13T08:07:52;62.58;;;30.25;;
36405;SDS011;22438;42.670;23.288;2023-02-13T08:11:23;62.25;;;28.38;;
36405;SDS011;22438;42.670;23.288;2023-02-13T08:15:08;63.88;;;30.38;;
36405;SDS011;22438;42.670;23.288;2023-02-13T08:18:30;60.30;;;30.88;;
36405;SDS011;22438;42.670;23.288;2023-02-13T08:21:51;64.07;;;31.23;;
36405;SDS011;22438;42.670;23.288;2023-02-13T08:25:12;61.13;;;30.10;;
36405;SDS011;22438;42.670;23.288;2023-02-13T08:28:33;60.50;;;27.42;;
36405;SDS011;22438;42.670;23.288;2023-02-13T08:31:53;64.47;;;30.42;;
36405;SDS011;22438;42.670;23.288;2023-02-13T08:35:14;63.47;;;29.75;;
36405;SDS011;22438;42.670;23.288;2023-02-13T08:38:35;66.55;;;31.50;;
36405;SDS011;22438;42.670;23.288;2023-02-13T08:41:56;68.60;;;31.33;;
36405;SDS011;22438;42.670;23.288;2023-02-13T08:45:16;74.30;;;36.00;;
36405;SDS011;22438;42.670;23.288;2023-02-13T08:48:37;69.68;;;35.78;;
36405;SDS011;22438;42.670;23.288;2023-02-13T08:52:01;122.80;;;67.70;;
36405;SDS011;22438;42.670;23.288;2023-02-13T08:55:23;108.45;;;56.50;;
36405;SDS011;22438;42.670;23.288;2023-02-13T08:58:47;96.82;;;50.30;;
36405;SDS011;22438;42.670;23.288;2023-02-13T09:02:12;74.40;;;37.42;;
36405;SDS011;22438;42.670;23.288;2023-02-13T09:05:34;70.90;;;35.20;;
36405;SDS011;22438;42.670;23.288;2023-02-13T09:08:55;78.50;;;36.83;;
36405;SDS011;22438;42.670;23.288;2023-02-13T09:12:16;65.15;;;32.53;;
36405;SDS011;22438;42.670;23.288;2023-02-13T09:15:37;67.07;;;33.75;;
36405;SDS011;22438;42.670;23.288;2023-02-13T09:18:59;72.15;;;33.60;;
36405;SDS011;22438;42.670;23.288;2023-02-13T09:22:20;68.68;;;33.38;;
36405;SDS011;22438;42.670;23.288;2023-02-13T09:25:41;71.97;;;35.25;;
36405;SDS011;22438;42.670;23.288;2023-02-13T09:29:02;65.75;;;35.70;;
36405;SDS011;22438;42.670;23.288;2023-02-13T09:32:23;63.83;;;31.92;;
36405;SDS011;22438;42.670;23.288;2023-02-13T09:35:44;63.67;;;32.35;;
36405;SDS011;22438;42.670;23.288;2023-02-13T09:39:04;61.90;;;32.65;;
36405;SDS011;22438;42.670;23.288;2023-02-13T09:42:26;62.92;;;32.10;;
36405;SDS011;22438;42.670;23.288;2023-02-13T09:45:48;61.13;;;30.05;;
36405;SDS011;22438;42.670;23.288;2023-02-13T17:56:05;41.53;;;18.35;;
36405;SDS011;22438;42.670;23.288;2023-02-13T17:59:26;40.65;;;19.40;;
36405;SDS011;22438;42.670;23.288;2023-02-13T18:19:29;37.08;;;18.65;;
36405;SDS011;22438;42.670;23.288;2023-02-13T18:22:49;39.63;;;18.75;;
36405;SDS011;22438;42.670;23.288;2023-02-13T18:26:10;37.92;;;18.98;;
36405;SDS011;22438;42.670;23.288;2023-02-13T18:29:31;33.13;;;17.38;;
36405;SDS011;22438;42.670;23.288;2023-02-13T18:32:53;34.72;;;17.35;;
36405;SDS011;22438;42.670;23.288;2023-02-13T18:36:14;37.42;;;18.50;;
36405;SDS011;22438;42.670;23.288;2023-02-13T18:39:35;38.10;;;19.05;;
36405;SDS011;22438;42.670;23.288;2023-02-13T18:42:55;37.70;;;19.52;;
36405;SDS011;22438;42.670;23.288;2023-02-13T18:46:16;36.58;;;18.00;;
36405;SDS011;22438;42.670;23.288;2023-02-13T18:49:37;37.60;;;17.60;;
36405;SDS011;22438;42.670;23.288;2023-02-13T18:52:58;38.05;;;18.73;;
36405;SDS011;22438;42.670;23.288;2023-02-13T18:56:19;42.38;;;21.05;;
36405;SDS011;22438;42.670;23.288;2023-02-13T18:59:42;34.53;;;18.13;;
36405;SDS011;22438;42.670;23.288;2023-02-13T19:03:03;37.45;;;18.20;;
36405;SDS011;22438;42.670;23.288;2023-02-13T19:06:24;38.13;;;18.85;;
36405;SDS011;22438;42.670;23.288;2023-02-13T19:09:45;38.83;;;18.95;;
36405;SDS011;22438;42.670;23.288;2023-02-13T19:13:06;36.40;;;18.80;;
36405;SDS011;22438;42.670;23.288;2023-02-13T19:16:28;37.50;;;19.17;;
36405;SDS011;22438;42.670;23.288;2023-02-13T19:19:49;39.45;;;18.60;;
36405;SDS011;22438;42.670;23.288;2023-02-13T19:23:11;38.40;;;18.08;;
36405;SDS011;22438;42.670;23.288;2023-02-13T19:26:31;39.80;;;19.95;;
36405;SDS011;22438;42.670;23.288;2023-02-13T19:29:52;36.58;;;18.27;;
36405;SDS011;22438;42.670;23.288;2023-02-13T19:33:13;35.65;;;17.45;;
36405;SDS011;22438;42.670;23.288;2023-02-13T19:36:34;35.67;;;16.90;;
36405;SDS011;22438;42.670;23.288;2023-02-13T19:39:54;39.40;;;18.27;;
36405;SDS011;22438;42.670;23.288;2023-02-13T19:43:15;35.83;;;17.52;;
36405;SDS011;22438;42.670;23.288;2023-02-13T19:46:36;32.65;;;16.85;;
36405;SDS011;22438;42.670;23.288;2023-02-13T19:49:57;36.42;;;16.95;;
36405;SDS011;22438;42.670;23.288;2023-02-13T19:53:18;36.58;;;16.67;;
36405;SDS011;22438;42.670;23.288;2023-02-13T19:56:39;38.35;;;18.85;;
36405;SDS011;22438;42.670;23.288;2023-02-13T20:00:00;32.80;;;17.35;;
36405;SDS011;22438;42.670;23.288;2023-02-13T20:03:23;36.40;;;16.50;;
36405;SDS011;22438;42.670;23.288;2023-02-13T20:06:44;37.35;;;19.42;;
36405;SDS011;22438;42.670;23.288;2023-02-13T20:10:05;30.13;;;15.45;;
36405;SDS011;22438;42.670;23.288;2023-02-13T20:13:28;33.42;;;15.35;;
36405;SDS011;22438;42.670;23.288;2023-02-13T20:16:51;30.42;;;15.93;;
36405;SDS011;22438;42.670;23.288;2023-02-13T20:20:12;29.77;;;14.95;;
36405;SDS011;22438;42.670;23.288;2023-02-13T20:23:33;33.78;;;16.27;;
36405;SDS011;22438;42.670;23.288;2023-02-13T20:26:53;30.58;;;15.23;;
36405;SDS011;22438;42.670;23.288;2023-02-13T20:30:18;30.85;;;15.45;;
36405;SDS011;22438;42.670;23.288;2023-02-13T20:33:39;32.63;;;14.05;;
36405;SDS011;22438;42.670;23.288;2023-02-13T20:37:00;26.25;;;13.38;;
36405;SDS011;22438;42.670;23.288;2023-02-13T20:40:20;27.67;;;14.23;;
36405;SDS011;22438;42.670;23.288;2023-02-13T20:43:41;28.65;;;14.38;;
36405;SDS011;22438;42.670;23.288;2023-02-13T20:47:02;31.08;;;14.38;;
36405;SDS011;22438;42.670;23.288;2023-02-13T20:50:23;28.42;;;15.00;;
36405;SDS011;22438;42.670;23.288;2023-02-13T20:53:44;28.45;;;14.52;;
36405;SDS011;22438;42.670;23.288;2023-02-13T20:57:06;29.10;;;14.02;;
36405;SDS011;22438;42.670;23.288;2023-02-13T21:00:26;24.27;;;14.00;;
36405;SDS011;22438;42.670;23.288;2023-02-13T21:03:47;27.05;;;13.60;;
36405;SDS011;22438;42.670;23.288;2023-02-13T21:07:12;30.13;;;15.45;;
36405;SDS011;22438;42.670;23.288;2023-02-13T21:10:35;26.80;;;13.75;;
36405;SDS011;22438;42.670;23.288;2023-02-13T21:13:57;29.70;;;15.23;;
36405;SDS011;22438;42.670;23.288;2023-02-13T21:17:17;27.27;;;12.88;;
36405;SDS011;22438;42.670;23.288;2023-02-13T21:20:38;29.45;;;14.18;;
36405;SDS011;22438;42.670;23.288;2023-02-13T21:23:59;31.25;;;15.15;;
36405;SDS011;22438;42.670;23.288;2023-02-13T21:27:22;31.10;;;15.32;;
36405;SDS011;22438;42.670;23.288;2023-02-13T21:30:43;33.58;;;13.02;;
36405;SDS011;22438;42.670;23.288;2023-02-13T21:34:05;33.10;;;16.02;;
36405;SDS011;22438;42.670;23.288;2023-02-13T21:37:28;31.52;;;14.75;;
36405;SDS011;22438;42.670;23.288;2023-02-13T21:40:48;28.15;;;15.13;;
36405;SDS011;22438;42.670;23.288;2023-02-13T21:44:13;32.35;;;15.52;;
36405;SDS011;22438;42.670;23.288;2023-02-13T21:47:34;26.52;;;14.38;;
36405;SDS011;22438;42.670;23.288;2023-02-13T21:50:55;30.83;;;13.73;;
36405;SDS011;22438;42.670;23.288;2023-02-13T21:54:15;26.10;;;13.10;;
36405;SDS011;22438;42.670;23.288;2023-02-13T21:57:36;28.73;;;15.40;;
36405;SDS011;22438;42.670;23.288;2023-02-13T22:00:57;31.98;;;15.30;;
36405;SDS011;22438;42.670;23.288;2023-02-13T22:04:18;28.00;;;14.75;;
36405;SDS011;22438;42.670;23.288;2023-02-13T22:07:38;32.85;;;15.40;;
36405;SDS011;22438;42.670;23.288;2023-02-13T22:11:19;28.98;;;15.35;;
36405;SDS011;22438;42.670;23.288;2023-02-13T22:14:39;27.77;;;15.23;;
36405;SDS011;22438;42.670;23.288;2023-02-13T22:18:00;28.90;;;14.75;;
36405;SDS011;22438;42.670;23.288;2023-02-13T22:21:21;32.65;;;16.58;;
36405;SDS011;22438;42.670;23.288;2023-02-13T22:24:43;29.67;;;15.73;;
36405;SDS011;22438;42.670;23.288;2023-02-13T22:28:05;29.77;;;16.05;;
36405;SDS011;22438;42.670;23.288;2023-02-13T22:31:26;29.17;;;14.77;;
36405;SDS011;22438;42.670;23.288;2023-02-13T22:34:47;33.40;;;16.98;;
36405;SDS011;22438;42.670;23.288;2023-02-13T22:38:08;32.45;;;17.83;;
36405;SDS011;22438;42.670;23.288;2023-02-13T22:41:28;33.45;;;17.67;;
36405;SDS011;22438;42.670;23.288;2023-02-13T22:44:49;31.67;;;16.48;;
36405;SDS011;22438;42.670;23.288;2023-02-13T22:48:10;30.58;;;15.45;;
36405;SDS011;22438;42.670;23.288;2023-02-13T22:51:32;29.85;;;16.20;;
36405;SDS011;22438;42.670;23.288;2023-02-13T22:54:54;28.00;;;15.02;;
36405;SDS011;22438;42.670;23.288;2023-02-13T22:58:14;31.83;;;16.75;;
36405;SDS011;22438;42.670;23.288;2023-02-13T23:01:35;27.10;;;14.57;;
36405;SDS011;22438;42.670;23.288;2023-02-13T23:04:57;29.38;;;15.25;;
36405;SDS011;22438;42.670;23.288;2023-02-13T23:08:17;29.77;;;15.50;;
36405;SDS011;22438;42.670;23.288;2023-02-13T23:11:38;32.08;;;15.68;;
36405;SDS011;22438;42.670;23.288;2023-02-13T23:15:17;30.52;;;16.52;;
36405;SDS011;22438;42.670;23.288;2023-02-13T23:18:39;26.92;;;14.55;;
36405;SDS011;22438;42.670;23.288;2023-02-13T23:22:00;32.45;;;15.70;;
36405;SDS011;22438;42.670;23.288;2023-02-13T23:25:21;31.52;;;15.88;;
36405;SDS011;22438;42.670;23.288;2023-02-13T23:28:41;33.05;;;14.52;;
36405;SDS011;22438;42.670;23.288;2023-02-13T23:32:02;30.70;;;14.68;;
36405;SDS011;22438;42.670;23.288;2023-02-13T23:35:23;25.95;;;13.38;;
36405;SDS011;22438;42.670;23.288;2023-02-13T23:38:45;27.25;;;13.68;;
36405;SDS011;22438;42.670;23.288;2023-02-13T23:42:05;27.35;;;14.73;;
36405;SDS011;22438;42.670;23.288;2023-02-13T23:45:26;27.15;;;14.38;;
36405;SDS011;22438;42.670;23.288;2023-02-13T23:48:47;28.38;;;15.27;;
36405;SDS011;22438;42.670;23.288;2023-02-13T23:52:08;27.90;;;14.95;;
36405;SDS011;22438;42.670;23.288;2023-02-13T23:55:28;27.13;;;14.50;;
36405;SDS011;22438;42.670;23.288;2023-02-13T23:58:49;26.67;;;14.85;;
